Time;durP1;ratioP1;P1;durP2;ratioP2;P2;SDS_P1;SDS_P2;PMS_P1;PMS_P2;Temp;Humidity;BMP_temperature;BMP_pressure;BME280_temperature;BME280_humidity;BME280_pressure;Samples;Min_cycle;Max_cycle;Signal;HPM_P1;HPM_P2
2022/08/16 00:00:57;;;;;;;0.20;0.20;;;22.50;99.90;;;;;;5178589;27;20019;-93
2022/08/16 00:03:22;;;;;;;0.20;0.20;;;22.50;99.90;;;;;;5155302;27;20043;-93
2022/08/16 00:05:54;;;;;;;0.20;0.20;;;22.50;99.90;;;;;;5146468;27;20035;-95
2022/08/16 00:08:19;;;;;;;0.20;0.20;;;22.40;99.90;;;;;;5162448;27;20050;-95
2022/08/16 00:10:45;;;;;;;0.10;0.10;;;22.40;99.90;;;;;;5159821;27;20047;-94
2022/08/16 00:13:14;;;;;;;0.20;0.20;;;22.40;99.90;;;;;;5163838;27;20478;-95
2022/08/16 00:15:46;;;;;;;0.20;0.20;;;22.40;99.90;;;;;;5164689;27;20039;-94
2022/08/16 00:18:16;;;;;;;0.20;0.20;;;22.40;99.90;;;;;;5159096;27;20137;-95
2022/08/16 00:20:44;;;;;;;0.20;0.20;;;22.40;99.90;;;;;;5162910;27;20083;-95
2022/08/16 00:23:11;;;;;;;0.20;0.20;;;22.30;99.90;;;;;;5154217;27;20045;-95
2022/08/16 00:25:37;;;;;;;0.20;0.20;;;22.30;99.90;;;;;;5149341;27;20046;-95
2022/08/16 00:28:04;;;;;;;0.20;0.20;;;22.30;99.90;;;;;;5171614;27;20027;-95
2022/08/16 00:30:33;;;;;;;0.17;0.17;;;22.30;99.90;;;;;;5171254;27;20035;-94
2022/08/16 00:33:00;;;;;;;0.20;0.20;;;22.30;99.90;;;;;;5145358;27;20050;-94
2022/08/16 00:35:33;;;;;;;0.20;0.20;;;22.30;99.90;;;;;;5151333;27;20050;-95
2022/08/16 00:38:01;;;;;;;0.10;0.10;;;22.30;99.90;;;;;;5145285;27;20047;-95
2022/08/16 00:40:43;;;;;;;0.20;0.20;;;22.30;99.90;;;;;;5161028;27;20091;-94
2022/08/16 00:43:13;;;;;;;0.20;0.20;;;22.30;99.90;;;;;;5142769;27;20047;-94
2022/08/16 00:45:42;;;;;;;0.20;0.20;;;22.30;99.90;;;;;;5148151;27;20138;-94
2022/08/16 00:48:12;;;;;;;0.20;0.20;;;22.30;99.90;;;;;;5146097;27;20054;-94
2022/08/16 00:50:40;;;;;;;0.20;0.20;;;22.30;99.90;;;;;;5167687;27;20035;-94
2022/08/16 00:53:08;;;;;;;0.20;0.20;;;22.30;99.90;;;;;;5166609;27;20074;-95
2022/08/16 00:55:37;;;;;;;0.20;0.20;;;22.30;99.90;;;;;;5147445;27;20078;-95
2022/08/16 00:58:04;;;;;;;0.10;0.10;;;22.30;99.90;;;;;;5146005;27;20038;-95
2022/08/16 01:00:32;;;;;;;0.20;0.20;;;22.40;99.90;;;;;;5162784;27;20039;-95
2022/08/16 01:03:04;;;;;;;0.10;0.10;;;22.30;99.90;;;;;;5157639;27;20026;-94
2022/08/16 01:05:31;;;;;;;0.10;0.10;;;22.40;99.90;;;;;;5155232;27;20050;-95
2022/08/16 01:07:57;;;;;;;0.10;0.10;;;22.30;99.90;;;;;;5148393;27;20133;-95
2022/08/16 01:10:25;;;;;;;0.20;0.20;;;22.30;99.90;;;;;;5150517;27;20045;-94
2022/08/16 01:12:50;;;;;;;0.20;0.20;;;22.30;99.90;;;;;;5174748;27;20087;-94
2022/08/16 01:15:17;;;;;;;0.20;0.20;;;22.30;99.90;;;;;;5163481;27;20038;-95
2022/08/16 01:17:45;;;;;;;0.20;0.20;;;22.30;99.90;;;;;;5173070;27;20069;-95
2022/08/16 01:20:14;;;;;;;0.20;0.20;;;22.30;99.90;;;;;;5160030;27;20057;-95
2022/08/16 01:23:11;;;;;;;0.10;0.10;;;22.30;99.90;;;;;;5174166;27;20049;-95
2022/08/16 01:25:43;;;;;;;0.20;0.20;;;22.30;99.90;;;;;;5154914;27;20071;-95
2022/08/16 01:28:14;;;;;;;0.20;0.20;;;22.30;99.90;;;;;;5156389;27;20043;-94
2022/08/16 01:30:46;;;;;;;0.20;0.20;;;22.30;99.90;;;;;;5182496;27;20033;-95
2022/08/16 01:33:12;;;;;;;0.20;0.20;;;22.30;99.90;;;;;;5178858;27;20039;-95
2022/08/16 01:35:40;;;;;;;0.20;0.20;;;22.30;99.90;;;;;;5173244;27;20099;-94
2022/08/16 01:38:25;;;;;;;0.20;0.20;;;22.30;99.90;;;;;;5156167;27;20054;-95
2022/08/16 01:40:54;;;;;;;0.20;0.20;;;22.20;99.90;;;;;;5155352;27;20058;-95
2022/08/16 01:43:22;;;;;;;0.17;0.17;;;22.20;99.90;;;;;;5157281;27;20065;-94
2022/08/16 01:45:51;;;;;;;0.20;0.20;;;22.20;99.90;;;;;;5158682;27;20147;-94
2022/08/16 01:48:16;;;;;;;0.20;0.20;;;22.20;99.90;;;;;;5156617;27;20035;-95
2022/08/16 01:50:43;;;;;;;0.17;0.17;;;22.20;99.90;;;;;;5174411;27;20053;-96
2022/08/16 01:53:10;;;;;;;0.17;0.17;;;22.20;99.90;;;;;;5177125;27;20015;-95
2022/08/16 01:55:37;;;;;;;0.20;0.20;;;22.20;99.90;;;;;;5180846;27;20022;-91
2022/08/16 01:58:03;;;;;;;0.20;0.20;;;22.20;99.90;;;;;;5161164;27;20039;-94
2022/08/16 02:00:29;;;;;;;0.20;0.20;;;22.10;99.90;;;;;;5161923;27;20038;-95
2022/08/16 02:02:55;;;;;;;0.20;0.20;;;22.10;99.90;;;;;;5179407;27;20064;-95
2022/08/16 02:05:21;;;;;;;0.20;0.20;;;22.10;99.90;;;;;;5180532;27;20051;-96
2022/08/16 02:07:46;;;;;;;0.20;0.20;;;22.10;99.90;;;;;;5156129;27;20447;-94
2022/08/16 02:10:15;;;;;;;0.10;0.10;;;22.10;99.90;;;;;;5152597;27;20049;-96
2022/08/16 02:12:41;;;;;;;0.10;0.10;;;22.00;99.90;;;;;;5171587;27;20047;-94
2022/08/16 02:15:07;;;;;;;0.13;0.13;;;22.00;99.90;;;;;;5176095;27;20383;-94
2022/08/16 02:17:33;;;;;;;0.20;0.20;;;22.00;99.90;;;;;;5168372;27;20034;-96
2022/08/16 02:19:59;;;;;;;0.20;0.20;;;22.00;99.90;;;;;;5155789;27;20042;-95
2022/08/16 02:22:25;;;;;;;0.20;0.20;;;21.90;99.90;;;;;;5174811;27;20402;-95
2022/08/16 02:24:51;;;;;;;0.20;0.20;;;22.00;99.90;;;;;;5153783;27;20050;-95
2022/08/16 02:27:17;;;;;;;0.20;0.20;;;21.90;99.90;;;;;;5168114;27;20039;-95
2022/08/16 02:29:42;;;;;;;0.20;0.20;;;21.90;99.90;;;;;;5159079;27;20043;-95
2022/08/16 02:32:11;;;;;;;0.20;0.20;;;21.90;99.90;;;;;;5162822;27;20106;-95
2022/08/16 02:34:36;;;;;;;0.20;0.20;;;21.80;99.90;;;;;;5170634;27;20038;-94
2022/08/16 02:37:02;;;;;;;0.22;0.22;;;21.70;99.90;;;;;;5162130;27;20094;-96
2022/08/16 02:39:31;;;;;;;0.20;0.20;;;21.70;99.90;;;;;;5179082;27;20043;-94
2022/08/16 02:41:57;;;;;;;0.20;0.20;;;21.70;99.90;;;;;;5158017;27;20048;-94
2022/08/16 02:44:22;;;;;;;0.20;0.20;;;21.70;99.90;;;;;;5157619;27;20042;-94
2022/08/16 02:46:48;;;;;;;0.20;0.20;;;21.70;99.90;;;;;;5160382;27;20090;-95
2022/08/16 02:49:14;;;;;;;0.20;0.20;;;21.70;99.90;;;;;;5162862;27;20042;-96
2022/08/16 02:51:41;;;;;;;0.15;0.15;;;21.70;99.90;;;;;;5180825;27;20042;-95
2022/08/16 02:54:08;;;;;;;0.20;0.20;;;21.70;99.90;;;;;;5179376;27;20086;-96
2022/08/16 02:56:34;;;;;;;0.20;0.20;;;21.70;99.90;;;;;;5178861;27;20034;-96
2022/08/16 02:59:00;;;;;;;0.20;0.20;;;21.70;99.90;;;;;;5161688;27;20031;-96
2022/08/16 03:01:30;;;;;;;0.20;0.20;;;21.70;99.90;;;;;;5180344;27;20019;-95
2022/08/16 03:04:00;;;;;;;0.20;0.20;;;21.70;99.90;;;;;;5162590;27;20047;-96
2022/08/16 03:06:27;;;;;;;0.25;0.25;;;21.80;99.90;;;;;;5159468;27;20057;-95
2022/08/16 03:08:53;;;;;;;0.20;0.20;;;21.70;99.90;;;;;;5153335;27;20043;-95
2022/08/16 03:11:19;;;;;;;0.20;0.20;;;21.80;99.90;;;;;;5157834;27;20030;-96
2022/08/16 03:13:51;;;;;;;0.20;0.20;;;21.70;99.90;;;;;;5158646;27;20106;-95
2022/08/16 03:16:18;;;;;;;0.20;0.20;;;21.70;99.90;;;;;;5155451;27;20046;-94
2022/08/16 03:18:44;;;;;;;0.20;0.20;;;21.70;99.90;;;;;;5160866;27;20053;-95
2022/08/16 03:21:12;;;;;;;0.20;0.20;;;21.60;99.90;;;;;;5167186;27;20034;-96
2022/08/16 03:23:39;;;;;;;0.13;0.13;;;21.60;99.90;;;;;;5164526;27;20047;-95
2022/08/16 03:26:04;;;;;;;0.10;0.10;;;21.50;99.90;;;;;;5152000;27;20078;-94
2022/08/16 03:28:30;;;;;;;0.20;0.20;;;21.50;99.90;;;;;;5179096;27;20061;-96
2022/08/16 03:30:56;;;;;;;0.20;0.20;;;21.40;99.90;;;;;;5154627;27;20038;-95
2022/08/16 03:33:25;;;;;;;0.20;0.20;;;21.40;99.90;;;;;;5177464;27;20027;-96
2022/08/16 03:35:52;;;;;;;0.20;0.20;;;21.40;99.90;;;;;;5157190;27;20103;-95
2022/08/16 03:38:18;;;;;;;0.20;0.20;;;21.40;99.90;;;;;;5157232;27;20064;-96
2022/08/16 03:40:44;;;;;;;0.20;0.20;;;21.30;99.90;;;;;;5179135;27;20034;-95
2022/08/16 03:43:11;;;;;;;0.20;0.20;;;21.30;99.90;;;;;;5155702;27;20018;-95
2022/08/16 03:45:39;;;;;;;0.10;0.10;;;21.40;99.90;;;;;;5257865;22;20071;-89
2022/08/16 03:48:09;;;;;;;0.20;0.20;;;21.30;99.90;;;;;;5097609;28;20052;-94
2022/08/16 03:50:36;;;;;;;0.10;0.10;;;21.30;99.90;;;;;;5091659;28;20043;-95
2022/08/16 03:53:03;;;;;;;0.20;0.20;;;21.30;99.90;;;;;;5100285;28;20036;-95
2022/08/16 03:55:28;;;;;;;0.20;0.20;;;21.30;99.90;;;;;;5095455;28;20028;-96
2022/08/16 03:57:54;;;;;;;0.20;0.20;;;21.20;99.90;;;;;;5117093;28;20040;-95
2022/08/16 04:00:27;;;;;;;0.20;0.20;;;21.20;99.90;;;;;;5116358;28;20052;-95
2022/08/16 04:02:55;;;;;;;0.20;0.20;;;21.20;99.90;;;;;;5115767;28;20055;-95
2022/08/16 04:05:21;;;;;;;0.20;0.20;;;21.20;99.90;;;;;;5113281;28;20164;-96
2022/08/16 04:07:46;;;;;;;0.20;0.20;;;21.10;99.90;;;;;;5111543;28;20032;-95
2022/08/16 04:10:13;;;;;;;0.20;0.20;;;21.10;99.90;;;;;;5145449;22;20067;-96
2022/08/16 04:12:40;;;;;;;0.20;0.20;;;21.10;99.90;;;;;;5118332;28;20036;-95
2022/08/16 04:15:10;;;;;;;0.20;0.20;;;21.10;99.90;;;;;;5102532;28;20050;-94
2022/08/16 04:17:35;;;;;;;0.13;0.13;;;21.10;99.90;;;;;;5102688;28;20047;-95
2022/08/16 04:20:08;;;;;;;0.20;0.20;;;21.10;99.90;;;;;;5100175;28;20048;-96
2022/08/16 04:22:35;;;;;;;0.20;0.20;;;21.10;99.90;;;;;;5116066;28;20036;-95
2022/08/16 04:25:01;;;;;;;0.20;0.20;;;21.10;99.90;;;;;;5099804;28;20036;-94
2022/08/16 04:27:26;;;;;;;0.20;0.20;;;21.00;99.90;;;;;;5096702;28;20082;-96
2022/08/16 04:29:52;;;;;;;0.20;0.20;;;20.90;99.90;;;;;;5116857;28;20040;-95
2022/08/16 04:32:18;;;;;;;0.20;0.20;;;20.90;99.90;;;;;;5100788;28;20028;-94
2022/08/16 04:34:44;;;;;;;0.20;0.20;;;20.80;99.90;;;;;;5103425;28;20043;-96
2022/08/16 04:37:09;;;;;;;0.20;0.20;;;20.70;99.90;;;;;;5097624;28;20087;-96
2022/08/16 04:39:36;;;;;;;0.20;0.20;;;20.70;99.90;;;;;;5100974;28;20055;-95
2022/08/16 04:42:02;;;;;;;0.10;0.10;;;20.70;99.90;;;;;;5115786;28;20062;-93
2022/08/16 04:44:28;;;;;;;0.20;0.20;;;20.60;99.90;;;;;;5114004;28;20040;-95
2022/08/16 04:46:54;;;;;;;0.20;0.20;;;20.60;99.90;;;;;;5098503;28;20044;-95
2022/08/16 04:49:20;;;;;;;0.20;0.20;;;20.60;99.90;;;;;;5112632;28;20024;-95
2022/08/16 04:51:46;;;;;;;0.20;0.20;;;20.60;99.90;;;;;;5165622;22;20044;-94
2022/08/16 04:54:11;;;;;;;0.15;0.15;;;20.90;99.90;;;;;;5100037;28;20046;-95
2022/08/16 04:56:37;;;;;;;0.20;0.20;;;20.50;99.90;;;;;;5121314;28;20028;-95
2022/08/16 04:59:04;;;;;;;0.20;0.20;;;20.50;99.90;;;;;;5284464;22;20052;-92
2022/08/16 05:01:30;;;;;;;0.17;0.17;;;20.50;99.90;;;;;;5103691;28;20060;-95
2022/08/16 05:03:55;;;;;;;0.20;0.20;;;20.50;99.90;;;;;;5120421;28;20039;-96
2022/08/16 05:06:21;;;;;;;0.20;0.20;;;20.50;99.90;;;;;;5099058;28;20039;-96
2022/08/16 05:08:47;;;;;;;0.20;0.20;;;20.40;99.90;;;;;;5191047;22;20023;-91
2022/08/16 05:11:15;;;;;;;0.20;0.20;;;20.30;99.90;;;;;;5215491;22;20035;-94
2022/08/16 05:13:44;;;;;;;0.10;0.10;;;20.30;99.90;;;;;;5117214;28;20060;-95
2022/08/16 05:16:12;;;;;;;0.13;0.13;;;20.40;99.90;;;;;;5116022;28;20047;-95
2022/08/16 05:18:38;;;;;;;0.20;0.20;;;20.40;99.90;;;;;;5124487;28;20130;-94
2022/08/16 05:21:04;;;;;;;0.20;0.20;;;20.30;99.90;;;;;;5114621;28;20039;-92
2022/08/16 05:23:32;;;;;;;0.17;0.17;;;20.30;99.90;;;;;;5130973;28;20062;-95
2022/08/16 05:25:59;;;;;;;0.10;0.10;;;20.30;99.90;;;;;;5121047;28;20063;-96
2022/08/16 05:28:25;;;;;;;0.20;0.20;;;20.20;99.90;;;;;;5123655;28;20044;-95
2022/08/16 05:30:51;;;;;;;0.20;0.20;;;20.20;99.90;;;;;;5122368;28;20051;-96
2022/08/16 05:33:17;;;;;;;0.20;0.20;;;20.10;99.90;;;;;;5107727;28;20043;-95
2022/08/16 05:35:43;;;;;;;0.13;0.13;;;20.10;99.90;;;;;;5138794;28;20055;-94
2022/08/16 05:38:09;;;;;;;0.20;0.20;;;20.10;99.90;;;;;;5126060;28;20396;-95
2022/08/16 05:40:35;;;;;;;0.10;0.10;;;20.10;99.90;;;;;;5121768;28;20051;-95
2022/08/16 05:43:01;;;;;;;0.13;0.13;;;20.10;99.90;;;;;;5124674;28;20509;-96
2022/08/16 05:45:26;;;;;;;0.20;0.20;;;20.00;99.90;;;;;;5100412;28;20070;-94
2022/08/16 05:47:52;;;;;;;0.20;0.20;;;20.00;99.90;;;;;;5103561;28;20047;-93
2022/08/16 05:50:17;;;;;;;0.20;0.20;;;20.00;99.90;;;;;;5121480;28;20406;-94
2022/08/16 05:52:43;;;;;;;0.20;0.20;;;19.90;99.90;;;;;;5105570;28;20559;-95
2022/08/16 05:55:09;;;;;;;0.20;0.20;;;19.90;99.90;;;;;;5105174;28;20047;-94
2022/08/16 05:57:34;;;;;;;0.20;0.20;;;19.90;99.90;;;;;;5124430;28;20035;-96
2022/08/16 06:00:01;;;;;;;0.20;0.20;;;19.90;99.90;;;;;;5120685;28;20166;-95
2022/08/16 06:02:30;;;;;;;0.20;0.20;;;19.90;99.90;;;;;;5126444;28;20036;-94
2022/08/16 06:04:56;;;;;;;0.20;0.20;;;20.00;99.90;;;;;;5115553;28;20122;-93
2022/08/16 06:07:22;;;;;;;0.20;0.20;;;20.00;99.90;;;;;;5088738;28;20040;-92
2022/08/16 06:09:47;;;;;;;0.15;0.15;;;20.10;99.90;;;;;;5101510;28;20123;-93
2022/08/16 06:12:14;;;;;;;0.20;0.20;;;20.10;99.90;;;;;;5079841;28;20051;-94
2022/08/16 06:14:40;;;;;;;0.20;0.20;;;20.20;99.90;;;;;;5082936;28;20040;-91
2022/08/16 06:17:06;;;;;;;0.20;0.20;;;20.30;99.90;;;;;;5081932;28;20104;-92
2022/08/16 06:19:34;;;;;;;0.10;0.10;;;20.30;99.90;;;;;;5101140;28;20040;-92
2022/08/16 06:22:00;;;;;;;0.20;0.20;;;20.40;99.90;;;;;;5083479;28;20047;-91
2022/08/16 06:24:26;;;;;;;0.20;0.20;;;20.40;99.90;;;;;;5098808;28;20044;-93
2022/08/16 06:26:51;;;;;;;0.20;0.20;;;20.50;99.90;;;;;;5080025;28;20105;-94
2022/08/16 06:29:17;;;;;;;0.17;0.17;;;20.50;99.90;;;;;;5078373;28;20039;-88
2022/08/16 06:31:42;;;;;;;0.20;0.20;;;20.60;99.90;;;;;;5076027;28;20457;-88
2022/08/16 06:34:08;;;;;;;0.20;0.20;;;20.70;99.90;;;;;;5078355;28;20055;-89
2022/08/16 06:36:34;;;;;;;0.15;0.15;;;20.80;99.90;;;;;;5100060;28;20103;-94
2022/08/16 06:39:00;;;;;;;0.20;0.20;;;20.80;99.90;;;;;;5100316;28;20391;-94
2022/08/16 06:41:25;;;;;;;0.20;0.20;;;20.90;99.90;;;;;;5084575;28;20040;-94
2022/08/16 06:44:01;;;;;;;0.30;0.30;;;21.00;99.90;;;;;;5087917;28;20044;-96
2022/08/16 06:46:33;;;;;;;0.20;0.20;;;21.10;99.90;;;;;;5100117;28;20052;-95
2022/08/16 06:49:00;;;;;;;0.30;0.30;;;21.20;99.90;;;;;;5099027;28;20058;-95
2022/08/16 06:51:26;;;;;;;0.17;0.17;;;21.20;99.90;;;;;;5097487;28;20048;-94
2022/08/16 06:53:51;;;;;;;0.15;0.15;;;21.20;99.90;;;;;;5080062;28;20075;-94
2022/08/16 06:56:17;;;;;;;0.20;0.20;;;21.30;99.90;;;;;;5097989;28;20016;-94
2022/08/16 06:58:42;;;;;;;0.20;0.20;;;21.40;99.90;;;;;;5080299;28;20047;-93
2022/08/16 07:01:08;;;;;;;0.13;0.13;;;21.50;99.90;;;;;;5106472;28;20040;-93
2022/08/16 07:03:34;;;;;;;0.22;0.22;;;21.50;99.90;;;;;;5094943;28;20052;-94
2022/08/16 07:06:00;;;;;;;0.10;0.10;;;21.60;99.90;;;;;;5083110;28;20471;-94
2022/08/16 07:08:26;;;;;;;0.20;0.20;;;21.60;99.90;;;;;;5096306;28;20032;-93
2022/08/16 07:10:52;;;;;;;0.20;0.20;;;21.70;99.90;;;;;;5096754;28;20100;-94
2022/08/16 07:13:19;;;;;;;0.20;0.20;;;21.70;99.90;;;;;;5080184;28;20539;-92
2022/08/16 07:15:45;;;;;;;0.20;0.20;;;21.80;99.90;;;;;;5104946;28;20016;-90
2022/08/16 07:18:11;;;;;;;0.20;0.20;;;21.80;99.90;;;;;;5084678;28;20040;-93
2022/08/16 07:20:37;;;;;;;0.20;0.20;;;21.90;99.90;;;;;;5079081;28;20075;-92
2022/08/16 07:23:05;;;;;;;0.20;0.20;;;22.00;99.90;;;;;;5097708;28;20044;-92
2022/08/16 07:25:34;;;;;;;0.20;0.20;;;22.00;99.90;;;;;;5096133;28;20102;-91
2022/08/16 07:28:03;;;;;;;0.20;0.20;;;22.10;99.90;;;;;;5099026;28;20498;-92
2022/08/16 07:30:30;;;;;;;0.20;0.20;;;22.10;99.90;;;;;;5117086;28;20073;-93
2022/08/16 07:32:55;;;;;;;0.20;0.20;;;22.10;99.90;;;;;;5103261;28;20063;-93
2022/08/16 07:35:22;;;;;;;0.20;0.20;;;22.20;99.90;;;;;;5137795;28;20047;-94
2022/08/16 07:37:48;;;;;;;0.20;0.20;;;22.30;99.90;;;;;;5131126;28;20110;-94
2022/08/16 07:40:14;;;;;;;0.20;0.20;;;22.30;99.90;;;;;;5118044;28;20089;-93
2022/08/16 07:42:40;;;;;;;0.20;0.20;;;22.40;99.90;;;;;;5103183;28;20040;-94
2022/08/16 07:45:07;;;;;;;0.20;0.20;;;22.50;99.90;;;;;;5123559;28;20103;-93
2022/08/16 07:47:33;;;;;;;0.10;0.10;;;22.50;99.90;;;;;;5099542;28;20368;-93
2022/08/16 07:49:59;;;;;;;0.20;0.20;;;22.60;99.90;;;;;;5100117;28;20051;-92
2022/08/16 07:52:25;;;;;;;0.20;0.20;;;22.70;99.90;;;;;;5100799;28;20043;-93
2022/08/16 07:54:51;;;;;;;0.20;0.20;;;22.70;99.90;;;;;;5101731;28;20039;-92
2022/08/16 07:57:16;;;;;;;0.20;0.20;;;22.80;99.90;;;;;;5105304;28;20035;-91
2022/08/16 07:59:45;;;;;;;0.20;0.20;;;22.80;99.90;;;;;;5108021;28;20043;-93
2022/08/16 08:02:12;;;;;;;0.20;0.20;;;22.90;99.90;;;;;;5101347;28;20051;-94
2022/08/16 08:04:37;;;;;;;0.20;0.20;;;22.90;99.90;;;;;;5102610;28;20036;-93
2022/08/16 08:07:03;;;;;;;0.20;0.20;;;22.90;99.90;;;;;;5112180;28;20517;-93
2022/08/16 08:09:29;;;;;;;0.20;0.20;;;23.00;99.90;;;;;;5102226;28;20176;-94
2022/08/16 08:11:54;;;;;;;0.20;0.20;;;23.00;99.90;;;;;;5101330;28;20048;-93
2022/08/16 08:14:20;;;;;;;0.10;0.10;;;23.10;99.90;;;;;;5103981;28;20051;-93
2022/08/16 08:16:46;;;;;;;0.20;0.20;;;23.20;99.90;;;;;;5119446;28;20108;-94
2022/08/16 08:19:11;;;;;;;0.20;0.20;;;23.20;99.90;;;;;;5118471;28;20122;-94
2022/08/16 08:21:39;;;;;;;0.20;0.20;;;23.30;99.90;;;;;;5122928;28;20051;-93
2022/08/16 08:24:11;;;;;;;0.20;0.20;;;23.40;99.90;;;;;;5101212;28;20047;-93
2022/08/16 08:26:36;;;;;;;0.20;0.20;;;23.40;99.90;;;;;;5109976;28;20055;-96
2022/08/16 08:29:03;;;;;;;0.20;0.20;;;23.50;99.90;;;;;;5119176;28;20091;-94
2022/08/16 08:31:29;;;;;;;0.20;0.20;;;23.60;99.90;;;;;;5119426;28;20537;-94
2022/08/16 08:33:55;;;;;;;0.20;0.20;;;23.60;99.90;;;;;;5100983;28;20055;-93
2022/08/16 08:36:27;;;;;;;0.20;0.20;;;23.70;99.90;;;;;;5106442;28;20098;-93
2022/08/16 08:38:53;;;;;;;0.20;0.20;;;23.70;99.90;;;;;;5114244;28;20024;-93
2022/08/16 08:41:19;;;;;;;0.20;0.20;;;23.80;99.90;;;;;;5128851;28;20043;-93
2022/08/16 08:43:45;;;;;;;0.20;0.20;;;23.90;99.90;;;;;;5112302;28;20055;-90
2022/08/16 08:46:11;;;;;;;0.20;0.20;;;23.90;99.90;;;;;;5111117;28;20058;-94
2022/08/16 08:48:39;;;;;;;0.20;0.20;;;24.00;99.90;;;;;;5123553;28;20051;-91
2022/08/16 08:51:07;;;;;;;0.20;0.20;;;24.00;99.90;;;;;;5126732;28;20046;-93
2022/08/16 08:53:33;;;;;;;0.20;0.20;;;24.10;99.90;;;;;;5124557;28;20095;-93
2022/08/16 08:55:59;;;;;;;0.20;0.20;;;24.20;99.90;;;;;;5108428;28;20047;-94
2022/08/16 08:58:28;;;;;;;0.30;0.28;;;24.20;99.90;;;;;;5123671;28;20043;-96
2022/08/16 09:00:55;;;;;;;0.20;0.20;;;24.30;99.90;;;;;;5107335;28;20044;-94
2022/08/16 09:03:21;;;;;;;0.20;0.20;;;24.30;99.70;;;;;;5125255;28;20039;-93
2022/08/16 09:05:48;;;;;;;0.20;0.20;;;24.40;99.60;;;;;;5122681;28;20043;-94
2022/08/16 09:08:19;;;;;;;0.20;0.20;;;24.40;99.50;;;;;;5119468;28;20051;-94
2022/08/16 09:10:45;;;;;;;0.20;0.20;;;24.50;99.00;;;;;;5127594;28;20065;-90
2022/08/16 09:13:11;;;;;;;0.20;0.20;;;24.60;99.00;;;;;;5122545;28;20048;-94
2022/08/16 09:15:37;;;;;;;0.20;0.20;;;24.70;99.30;;;;;;5123242;28;20038;-95
2022/08/16 09:18:04;;;;;;;0.20;0.20;;;24.70;99.30;;;;;;5128401;28;20043;-95
2022/08/16 09:20:30;;;;;;;0.20;0.20;;;24.80;99.50;;;;;;5125773;28;20039;-96
2022/08/16 09:22:57;;;;;;;0.20;0.20;;;24.90;99.40;;;;;;5113575;28;20035;-93
2022/08/16 09:25:26;;;;;;;0.20;0.20;;;25.00;98.80;;;;;;5106583;28;20112;-95
2022/08/16 09:27:52;;;;;;;0.20;0.20;;;25.00;98.80;;;;;;5085245;28;20040;-96
2022/08/16 09:30:17;;;;;;;0.20;0.20;;;25.10;99.00;;;;;;5084330;28;20047;-95
2022/08/16 09:32:43;;;;;;;0.20;0.20;;;25.20;98.10;;;;;;5101363;28;20044;-92
2022/08/16 09:35:12;;;;;;;0.20;0.20;;;25.20;98.30;;;;;;5082203;28;20051;-92
2022/08/16 09:37:37;;;;;;;0.20;0.20;;;25.30;98.00;;;;;;5103134;28;20048;-95
2022/08/16 09:40:06;;;;;;;0.20;0.20;;;25.40;97.60;;;;;;5080485;28;20136;-95
2022/08/16 09:42:31;;;;;;;0.20;0.20;;;25.40;97.20;;;;;;5088055;28;20042;-93
2022/08/16 09:44:58;;;;;;;0.15;0.15;;;25.40;95.90;;;;;;5113084;28;20047;-93
2022/08/16 09:47:24;;;;;;;0.20;0.20;;;25.50;96.50;;;;;;5103935;28;20123;-95
2022/08/16 09:49:52;;;;;;;0.20;0.20;;;25.50;95.60;;;;;;5083923;28;20076;-92
2022/08/16 09:52:18;;;;;;;0.20;0.20;;;25.60;95.60;;;;;;5092688;28;20085;-95
2022/08/16 09:54:43;;;;;;;0.20;0.20;;;25.70;95.60;;;;;;5101337;28;20081;-92
2022/08/16 09:57:09;;;;;;;0.20;0.20;;;25.70;95.60;;;;;;5101005;28;20044;-95
2022/08/16 09:59:35;;;;;;;0.20;0.20;;;25.80;95.50;;;;;;5108196;28;20157;-94
2022/08/16 10:02:01;;;;;;;0.20;0.20;;;25.80;95.30;;;;;;5088436;28;20048;-94
2022/08/16 10:04:27;;;;;;;0.20;0.20;;;25.90;95.20;;;;;;5094286;28;20056;-96
2022/08/16 10:06:57;;;;;;;0.20;0.20;;;26.00;95.20;;;;;;5103324;28;20071;-96
2022/08/16 10:09:22;;;;;;;0.20;0.20;;;26.00;95.10;;;;;;5104892;28;20102;-95
2022/08/16 10:14:49;;;;;;;0.20;0.20;;;26.20;94.40;;;;;;5037439;28;20052;-96
2022/08/16 10:17:15;;;;;;;0.20;0.20;;;26.20;94.10;;;;;;5107105;28;20040;-93
2022/08/16 10:19:41;;;;;;;0.20;0.20;;;26.30;94.60;;;;;;5123879;28;20043;-91
2022/08/16 10:22:08;;;;;;;0.20;0.20;;;26.40;94.30;;;;;;5105600;28;20050;-95
2022/08/16 10:24:34;;;;;;;0.20;0.20;;;26.50;94.10;;;;;;5123292;28;20047;-95
2022/08/16 10:27:02;;;;;;;0.20;0.20;;;26.60;93.50;;;;;;5117731;28;20031;-94
2022/08/16 10:29:31;;;;;;;0.20;0.20;;;26.60;93.60;;;;;;5115404;28;20063;-93
2022/08/16 10:31:57;;;;;;;0.20;0.20;;;26.60;93.60;;;;;;5104209;28;20051;-96
2022/08/16 10:34:22;;;;;;;0.20;0.20;;;26.70;93.70;;;;;;5135730;28;20026;-95
2022/08/16 10:36:48;;;;;;;0.20;0.20;;;26.70;93.70;;;;;;5122060;28;20099;-93
2022/08/16 10:39:14;;;;;;;0.20;0.20;;;26.80;93.20;;;;;;5106065;28;20048;-94
2022/08/16 10:41:39;;;;;;;0.20;0.20;;;26.80;92.90;;;;;;5123567;28;20407;-95
2022/08/16 10:44:05;;;;;;;0.30;0.30;;;26.90;93.00;;;;;;5129483;28;20035;-95
2022/08/16 10:46:31;;;;;;;0.30;0.30;;;26.90;93.00;;;;;;5106620;28;20512;-95
2022/08/16 10:48:56;;;;;;;0.35;0.35;;;27.00;91.60;;;;;;5118830;28;20108;-93
2022/08/16 10:51:23;;;;;;;0.20;0.20;;;27.10;92.70;;;;;;5124636;28;20031;-95
2022/08/16 10:53:49;;;;;;;0.28;0.28;;;27.10;92.60;;;;;;5109819;28;20051;-95
2022/08/16 10:56:15;;;;;;;0.20;0.20;;;27.10;92.30;;;;;;5107248;28;20048;-95
2022/08/16 10:58:41;;;;;;;0.20;0.20;;;27.20;92.30;;;;;;5126633;28;20081;-94
2022/08/16 11:01:09;;;;;;;0.20;0.20;;;27.30;92.30;;;;;;5124515;28;20051;-95
2022/08/16 11:03:37;;;;;;;0.30;0.30;;;27.40;91.90;;;;;;5123532;28;20046;-95
2022/08/16 11:06:05;;;;;;;0.20;0.20;;;27.50;91.40;;;;;;5122485;28;20042;-94
2022/08/16 11:08:33;;;;;;;0.20;0.20;;;27.50;91.90;;;;;;5125149;28;20075;-95
2022/08/16 11:10:59;;;;;;;0.20;0.20;;;27.60;91.60;;;;;;5104819;28;20044;-95
2022/08/16 11:13:26;;;;;;;0.25;0.25;;;27.70;91.30;;;;;;5105218;28;20051;-93
2022/08/16 11:15:55;;;;;;;0.20;0.20;;;27.70;90.90;;;;;;5125446;28;20044;-95
2022/08/16 11:18:21;;;;;;;0.20;0.20;;;27.70;91.30;;;;;;5111791;28;20113;-95
2022/08/16 11:20:47;;;;;;;0.20;0.20;;;27.80;91.10;;;;;;5109351;28;20051;-94
2022/08/16 11:23:13;;;;;;;0.20;0.20;;;27.90;91.40;;;;;;5126173;28;20027;-96
2022/08/16 11:25:39;;;;;;;0.20;0.20;;;28.00;91.20;;;;;;5135462;28;20051;-95
2022/08/16 11:28:06;;;;;;;0.20;0.20;;;28.10;91.00;;;;;;5091594;28;20066;-95
2022/08/16 11:30:33;;;;;;;0.20;0.20;;;28.10;90.70;;;;;;5101801;22;20073;-95
2022/08/16 11:33:00;;;;;;;0.25;0.25;;;28.20;90.80;;;;;;5113813;28;20028;-95
2022/08/16 11:35:28;;;;;;;0.20;0.20;;;28.30;90.70;;;;;;5134185;28;20039;-95
2022/08/16 11:37:59;;;;;;;0.20;0.20;;;28.40;90.70;;;;;;5127316;28;20043;-94
2022/08/16 11:40:31;;;;;;;0.20;0.20;;;28.50;90.50;;;;;;5105547;28;20060;-94
2022/08/16 11:42:57;;;;;;;0.30;0.30;;;28.50;90.20;;;;;;5128028;28;20132;-96
2022/08/16 11:45:23;;;;;;;0.20;0.20;;;28.70;90.40;;;;;;5126185;28;20039;-94
2022/08/16 11:47:49;;;;;;;0.20;0.20;;;28.80;89.90;;;;;;5113929;28;20122;-95
2022/08/16 11:50:16;;;;;;;0.20;0.20;;;28.90;90.10;;;;;;5111652;28;20118;-96
2022/08/16 11:52:42;;;;;;;0.20;0.20;;;29.00;89.30;;;;;;5129246;28;20031;-93
2022/08/16 11:55:10;;;;;;;0.20;0.20;;;29.00;87.90;;;;;;5106814;28;20126;-96
2022/08/16 11:57:36;;;;;;;0.20;0.20;;;29.10;87.90;;;;;;5104704;28;20063;-94
2022/08/16 12:00:06;;;;;;;0.20;0.20;;;29.20;87.50;;;;;;5135557;28;20043;-95
2022/08/16 12:02:32;;;;;;;0.20;0.20;;;29.20;86.40;;;;;;5131652;28;20047;-95
2022/08/16 12:04:58;;;;;;;0.20;0.20;;;29.30;86.60;;;;;;5120431;28;20023;-95
2022/08/16 12:07:24;;;;;;;0.20;0.20;;;29.30;85.30;;;;;;5118396;28;20043;-93
2022/08/16 12:09:52;;;;;;;0.20;0.20;;;29.30;86.80;;;;;;5121785;28;20047;-93
2022/08/16 12:12:17;;;;;;;0.20;0.20;;;29.40;86.70;;;;;;5119647;28;20453;-95
2022/08/16 12:14:43;;;;;;;0.20;0.20;;;29.50;86.30;;;;;;5111015;28;20096;-92
2022/08/16 12:17:08;;;;;;;0.20;0.20;;;29.70;85.10;;;;;;5130943;28;20380;-96
2022/08/16 12:19:35;;;;;;;0.20;0.20;;;29.70;84.60;;;;;;5130557;28;20051;-96
2022/08/16 12:22:01;;;;;;;0.20;0.20;;;29.80;83.50;;;;;;5133692;28;20039;-96
2022/08/16 12:24:27;;;;;;;0.20;0.20;;;29.70;83.50;;;;;;5116993;28;20055;-95
2022/08/16 12:26:53;;;;;;;0.20;0.20;;;29.70;83.90;;;;;;5111517;28;20044;-96
2022/08/16 12:29:19;;;;;;;0.20;0.20;;;29.70;84.00;;;;;;5129542;28;20044;-96
2022/08/16 12:31:45;;;;;;;0.20;0.20;;;29.80;84.00;;;;;;5112867;28;20055;-95
2022/08/16 12:34:10;;;;;;;0.30;0.30;;;29.80;83.80;;;;;;5136206;28;20062;-93
2022/08/16 12:36:38;;;;;;;0.20;0.20;;;29.90;84.20;;;;;;5130377;28;20411;-96
2022/08/16 12:39:05;;;;;;;0.20;0.20;;;30.10;83.00;;;;;;5135885;28;20036;-96
2022/08/16 12:41:32;;;;;;;0.20;0.20;;;30.10;81.50;;;;;;5121257;28;20032;-93
2022/08/16 12:43:58;;;;;;;0.20;0.20;;;30.10;82.20;;;;;;5118935;28;20043;-96
2022/08/16 12:46:24;;;;;;;0.20;0.20;;;30.20;81.10;;;;;;5136521;28;20044;-95
2022/08/16 12:48:56;;;;;;;0.20;0.20;;;30.30;80.50;;;;;;5114173;28;20089;-95